CheckWX is a tool to help pilots better visualize weather data.  It is not intended as a substitute for an official pre-flight weather briefing.

06:39:10 UTC

KCXP METAR
Carson Airport
Carson City, Nevada, USA
Current

24 mins ago

KCXP 230615Z AUTO 00000KT 10SM CLR 09/M05 A3024 RMK AO2
Observed
Apr-23 @ 06:15 UTC
Visibility
10 SM
Flight Rules
VFR
Cloud Levels
  • Clear skies
Temperature
C / 48°F
Dewpoint
-5°C / 23°F
Humidity
37%
Altimeter
30.24" Hg
Pressure
1024.02 hPa
Previous

44 mins ago

KCXP 230555Z AUTO 00000KT 10SM CLR 09/M05 A3024 RMK AO2
Observed
Apr-23 @ 05:55 UTC
Visibility
10 SM
Flight Rules
VFR
Cloud Levels
  • Clear skies
Temperature
C / 48°F
Dewpoint
-5°C / 23°F
Humidity
37%
Altimeter
30.24" Hg
Pressure
1024.02 hPa
Previous

1 hour ago

KCXP 230535Z AUTO 00000KT 10SM CLR 09/M06 A3024 RMK AO2
Observed
Apr-23 @ 05:35 UTC
Visibility
10 SM
Flight Rules
VFR
Cloud Levels
  • Clear skies
Temperature
C / 48°F
Dewpoint
-6°C / 21°F
Humidity
34%
Altimeter
30.24" Hg
Pressure
1024.02 hPa